Time;durP1;ratioP1;P1;durP2;ratioP2;P2;SDS_P1;SDS_P2;PMS_P1;PMS_P2;Temp;Humidity;BMP_temperature;BMP_pressure;BME280_temperature;BME280_humidity;BME280_pressure;Samples;Min_cycle;Max_cycle;Signal;HPM_P1;HPM_P2
2022/01/03 00:01:46;;;;;;;;;;;8.80;99.90;;;;;;5048755;28;19944;-60
2022/01/03 00:04:15;;;;;;;;;;;8.80;99.90;;;;;;5061528;28;19921;-65
2022/01/03 00:06:44;;;;;;;;;;;8.90;99.90;;;;;;5068335;28;19921;-64
2022/01/03 00:09:12;;;;;;;;;;;8.80;99.90;;;;;;5068427;28;20386;-66
2022/01/03 00:11:40;;;;;;;;;;;8.90;99.90;;;;;;5068140;28;19931;-61
2022/01/03 00:14:07;;;;;;;;;;;8.90;99.90;;;;;;5067945;28;19921;-61
2022/01/03 00:16:35;;;;;;;;;;;8.80;99.90;;;;;;5048992;28;20280;-61
2022/01/03 00:19:02;;;;;;;;;;;8.80;99.90;;;;;;5061308;28;19924;-61
2022/01/03 00:21:45;;;;;;;;;;;8.70;99.90;;;;;;5068739;28;19943;-60
2022/01/03 00:24:13;;;;;;;;;;;8.60;99.90;;;;;;5067998;28;20364;-62
2022/01/03 00:26:41;;;;;;;;;;;8.60;99.90;;;;;;5068318;28;19920;-60
2022/01/03 00:29:10;;;;;;;;;;;8.50;99.90;;;;;;5068237;28;19928;-67
2022/01/03 00:31:39;;;;;;;;;;;8.50;99.90;;;;;;5048881;28;19927;-65
2022/01/03 00:34:07;;;;;;;;;;;8.40;99.90;;;;;;5058482;28;19927;-65
2022/01/03 00:36:35;;;;;;;;;;;8.40;99.90;;;;;;5067993;28;19925;-65
2022/01/03 00:39:04;;;;;;;;;;;8.30;99.90;;;;;;5083138;28;20474;-67
2022/01/03 00:41:32;;;;;;;;;;;8.40;99.90;;;;;;5068473;28;19920;-66
2022/01/03 00:43:59;;;;;;;;;;;8.30;99.90;;;;;;5049919;28;20291;-69
2022/01/03 00:46:29;;;;;;;;;;;8.30;99.90;;;;;;5017299;28;19921;-67
2022/01/03 00:48:58;;;;;;;;;;;8.30;99.90;;;;;;5042047;28;20367;-62
2022/01/03 00:51:26;;;;;;;;;;;8.30;99.90;;;;;;5068034;28;19920;-64
2022/01/03 00:53:53;;;;;;;;;;;8.30;99.90;;;;;;5067725;28;19920;-60
2022/01/03 00:56:27;;;;;;;;;;;8.20;99.90;;;;;;5067966;28;20084;-61
2022/01/03 00:58:57;;;;;;;;;;;8.10;99.90;;;;;;5067752;28;20375;-61
2022/01/03 01:01:25;;;;;;;;;;;8.10;99.90;;;;;;5050523;28;19920;-61
2022/01/03 01:03:54;;;;;;;;;;;8.00;99.90;;;;;;5036270;28;20106;-61
2022/01/03 01:06:22;;;;;;;;;;;8.00;99.90;;;;;;5064943;28;20364;-61
2022/01/03 01:08:55;;;;;;;;;;;7.90;99.90;;;;;;5049641;28;19924;-61
2022/01/03 01:11:25;;;;;;;;;;;7.90;99.90;;;;;;5050043;28;20379;-62
2022/01/03 01:13:53;;;;;;;;;;;7.90;99.90;;;;;;5050062;28;20276;-63
2022/01/03 01:16:23;;;;;;;;;;;8.00;99.90;;;;;;5019848;28;19927;-61
2022/01/03 01:18:52;;;;;;;;;;;8.00;99.90;;;;;;5041115;28;20468;-60
2022/01/03 01:21:22;;;;;;;;;;;8.00;99.90;;;;;;5049748;28;19936;-61
2022/01/03 01:23:52;;;;;;;;;;;8.20;99.90;;;;;;5040942;28;19921;-60
2022/01/03 01:29:08;;;;;;;;;;;8.20;99.90;;;;;;5064388;28;19920;-62
2022/01/03 01:31:36;;;;;;;;;;;8.20;99.90;;;;;;5039124;28;19920;-60
2022/01/03 01:34:04;;;;;;;;;;;8.20;99.90;;;;;;5062148;28;19930;-60
2022/01/03 01:36:33;;;;;;;;;;;8.30;99.90;;;;;;5053139;28;19920;-61
2022/01/03 01:39:03;;;;;;;;;;;8.40;99.90;;;;;;5053185;28;19920;-61
2022/01/03 01:41:34;;;;;;;;;;;8.40;99.90;;;;;;5053090;28;19920;-61
2022/01/03 01:44:01;;;;;;;;;;;8.50;99.90;;;;;;5052606;28;19920;-61
2022/01/03 01:46:29;;;;;;;;;;;8.50;99.90;;;;;;5024152;28;19932;-61
2022/01/03 01:49:05;;;;;;;;;;;8.40;99.90;;;;;;5046088;28;19921;-61
2022/01/03 01:51:34;;;;;;;;;;;8.40;99.90;;;;;;5070874;28;20261;-61
2022/01/03 01:54:05;;;;;;;;;;;8.40;99.90;;;;;;5035924;28;20380;-63
2022/01/03 01:56:34;;;;;;;;;;;8.50;99.90;;;;;;5052520;28;19928;-62
2022/01/03 01:59:11;;;;;;;;;;;8.40;99.90;;;;;;5052672;28;19921;-60
2022/01/03 02:01:54;;;;;;;;;;;8.40;99.90;;;;;;5006853;28;19928;-60
2022/01/03 02:04:23;;;;;;;;;;;8.40;99.90;;;;;;5062619;28;20159;-61
2022/01/03 02:06:53;;;;;;;;;;;8.40;99.90;;;;;;5070525;28;19924;-61
2022/01/03 02:09:33;;;;;;;;;;;8.40;99.90;;;;;;5085660;28;20387;-60
2022/01/03 02:12:02;;;;;;;;;;;8.40;99.90;;;;;;5086220;28;20394;-61
2022/01/03 02:14:37;;;;;;;;;;;8.30;99.90;;;;;;5052661;28;19920;-61
2022/01/03 02:17:10;;;;;;;;;;;8.30;99.90;;;;;;5036155;28;19921;-61
2022/01/03 02:19:39;;;;;;;;;;;8.20;99.90;;;;;;5049959;28;19920;-62
2022/01/03 02:22:10;;;;;;;;;;;8.20;99.90;;;;;;5052555;28;20295;-60
2022/01/03 02:24:45;;;;;;;;;;;8.20;99.90;;;;;;5036945;28;20387;-61
2022/01/03 02:27:13;;;;;;;;;;;8.20;99.90;;;;;;5051956;28;19924;-61
2022/01/03 02:29:42;;;;;;;;;;;8.20;99.90;;;;;;5048997;28;19921;-62
2022/01/03 02:32:17;;;;;;;;;;;8.20;99.90;;;;;;5034076;28;20103;-60
2022/01/03 02:34:44;;;;;;;;;;;8.20;99.90;;;;;;5047810;28;20372;-61
2022/01/03 02:37:13;;;;;;;;;;;8.30;99.90;;;;;;5048313;28;19920;-63
2022/01/03 02:39:41;;;;;;;;;;;8.30;99.90;;;;;;5033403;28;19927;-61
2022/01/03 02:42:08;;;;;;;;;;;8.40;99.90;;;;;;5052261;28;19931;-61
2022/01/03 02:44:36;;;;;;;;;;;8.40;99.90;;;;;;5051388;28;19920;-64
2022/01/03 02:47:04;;;;;;;;;;;8.30;99.90;;;;;;5037587;28;19920;-63
2022/01/03 02:49:31;;;;;;;;;;;8.30;99.90;;;;;;5048507;28;19944;-60
2022/01/03 02:51:59;;;;;;;;;;;8.30;99.90;;;;;;5051747;28;19927;-61
2022/01/03 02:54:26;;;;;;;;;;;8.30;99.90;;;;;;5069342;28;19931;-60
2022/01/03 02:56:55;;;;;;;;;;;8.20;99.90;;;;;;5035380;28;19920;-61
2022/01/03 02:59:23;;;;;;;;;;;8.30;99.90;;;;;;5033303;28;19943;-62
2022/01/03 03:01:51;;;;;;;;;;;8.30;99.90;;;;;;5040206;28;19928;-60
2022/01/03 03:04:20;;;;;;;;;;;8.20;99.90;;;;;;5015120;28;20403;-61
2022/01/03 03:06:48;;;;;;;;;;;8.30;99.90;;;;;;5049037;28;20363;-61
2022/01/03 03:09:16;;;;;;;;;;;8.30;99.90;;;;;;5063598;28;20288;-61
2022/01/03 03:11:46;;;;;;;;;;;8.30;99.90;;;;;;5051629;28;19928;-61
2022/01/03 03:14:14;;;;;;;;;;;8.40;99.90;;;;;;5069205;28;19931;-62
2022/01/03 03:16:42;;;;;;;;;;;8.40;99.90;;;;;;5047519;28;19920;-60
2022/01/03 03:19:09;;;;;;;;;;;8.40;99.90;;;;;;5044827;28;19932;-61
2022/01/03 03:21:37;;;;;;;;;;;8.30;99.90;;;;;;5051471;28;20288;-60
2022/01/03 03:24:05;;;;;;;;;;;8.40;99.90;;;;;;5034575;28;19920;-60
2022/01/03 03:26:32;;;;;;;;;;;8.40;99.90;;;;;;5051337;28;19946;-60
2022/01/03 03:29:00;;;;;;;;;;;8.40;99.90;;;;;;5034079;28;20299;-60
2022/01/03 03:31:29;;;;;;;;;;;8.40;99.90;;;;;;5044151;28;20410;-61
2022/01/03 03:33:56;;;;;;;;;;;8.40;99.90;;;;;;5049169;28;19928;-60
2022/01/03 03:36:24;;;;;;;;;;;8.30;99.90;;;;;;5030808;28;19921;-61
2022/01/03 03:38:51;;;;;;;;;;;8.30;99.90;;;;;;5041317;28;19921;-61
2022/01/03 03:41:19;;;;;;;;;;;8.20;99.90;;;;;;5050100;28;19928;-60
2022/01/03 03:43:53;;;;;;;;;;;8.20;99.90;;;;;;5054444;28;20399;-60
2022/01/03 03:46:23;;;;;;;;;;;8.20;99.90;;;;;;5054174;28;19943;-60
2022/01/03 03:48:50;;;;;;;;;;;8.20;99.90;;;;;;5054173;28;19925;-60
2022/01/03 03:51:22;;;;;;;;;;;8.20;99.90;;;;;;5054414;28;19927;-62
2022/01/03 03:53:52;;;;;;;;;;;8.20;99.90;;;;;;5054206;28;19927;-61
2022/01/03 03:56:22;;;;;;;;;;;8.20;99.90;;;;;;5054331;28;19927;-60
2022/01/03 03:58:50;;;;;;;;;;;8.20;99.90;;;;;;5037478;28;20372;-60
2022/01/03 04:01:17;;;;;;;;;;;8.20;99.90;;;;;;5054045;28;19927;-61
2022/01/03 04:03:50;;;;;;;;;;;8.20;99.90;;;;;;5071791;28;19924;-61
2022/01/03 04:06:19;;;;;;;;;;;8.20;99.90;;;;;;5054176;28;19920;-65
2022/01/03 04:08:50;;;;;;;;;;;8.20;99.90;;;;;;5054087;28;19931;-60
2022/01/03 04:11:18;;;;;;;;;;;8.20;99.90;;;;;;5070710;28;20315;-63
2022/01/03 04:13:46;;;;;;;;;;;8.20;99.90;;;;;;5053813;28;19927;-61
2022/01/03 04:16:15;;;;;;;;;;;8.20;99.90;;;;;;5054093;28;19939;-63
2022/01/03 04:18:42;;;;;;;;;;;8.20;99.90;;;;;;5037703;28;20417;-63
2022/01/03 04:21:10;;;;;;;;;;;8.20;99.90;;;;;;5054087;28;19924;-61
2022/01/03 04:23:38;;;;;;;;;;;8.10;99.90;;;;;;5053800;28;20341;-61
2022/01/03 04:26:05;;;;;;;;;;;8.00;99.90;;;;;;5053561;28;19920;-61
2022/01/03 04:28:35;;;;;;;;;;;8.00;99.90;;;;;;5053814;28;19920;-63
2022/01/03 04:31:02;;;;;;;;;;;7.90;99.90;;;;;;5071863;28;19927;-63
2022/01/03 04:33:32;;;;;;;;;;;7.90;99.90;;;;;;5053960;28;20287;-68
2022/01/03 04:35:59;;;;;;;;;;;7.90;99.90;;;;;;5036790;28;19921;-62
2022/01/03 04:38:27;;;;;;;;;;;7.90;99.90;;;;;;5053507;28;19928;-64
2022/01/03 04:40:55;;;;;;;;;;;7.90;99.90;;;;;;5071382;28;19921;-65
2022/01/03 04:43:23;;;;;;;;;;;7.90;99.90;;;;;;5071739;28;19920;-61
2022/01/03 04:45:51;;;;;;;;;;;7.90;99.90;;;;;;5037199;28;19928;-64
2022/01/03 04:48:19;;;;;;;;;;;7.80;99.90;;;;;;5053689;28;20359;-66
2022/01/03 04:50:47;;;;;;;;;;;7.80;99.90;;;;;;5071528;28;19927;-62
2022/01/03 04:53:14;;;;;;;;;;;7.80;99.90;;;;;;5071629;28;19938;-63
2022/01/03 04:55:44;;;;;;;;;;;7.80;99.90;;;;;;5053802;28;19921;-62
2022/01/03 04:58:11;;;;;;;;;;;7.70;99.90;;;;;;5053638;28;19924;-61
2022/01/03 05:00:39;;;;;;;;;;;7.70;99.90;;;;;;5057611;28;19943;-66
2022/01/03 05:03:07;;;;;;;;;;;7.70;99.90;;;;;;5057399;28;19921;-63
2022/01/03 05:05:36;;;;;;;;;;;7.80;99.90;;;;;;5057041;28;20391;-66
2022/01/03 05:08:04;;;;;;;;;;;7.80;99.90;;;;;;5074870;28;20430;-64
2022/01/03 05:10:33;;;;;;;;;;;7.80;99.90;;;;;;5056701;28;20403;-63
2022/01/03 05:13:00;;;;;;;;;;;7.90;99.90;;;;;;5057240;28;19920;-64
2022/01/03 05:15:28;;;;;;;;;;;7.90;99.90;;;;;;5073820;28;19927;-68
2022/01/03 05:17:56;;;;;;;;;;;7.90;99.90;;;;;;5057118;28;19927;-67
2022/01/03 05:20:24;;;;;;;;;;;7.80;99.90;;;;;;5057188;28;20284;-65
2022/01/03 05:22:51;;;;;;;;;;;7.80;99.90;;;;;;5074887;28;19924;-67
2022/01/03 05:25:19;;;;;;;;;;;7.80;99.90;;;;;;5073758;28;19927;-67
2022/01/03 05:27:48;;;;;;;;;;;7.80;99.90;;;;;;5056728;28;19920;-64
2022/01/03 05:30:15;;;;;;;;;;;7.90;99.90;;;;;;5056965;28;19921;-67
2022/01/03 05:32:43;;;;;;;;;;;7.80;99.90;;;;;;5056964;28;20314;-68
2022/01/03 05:35:11;;;;;;;;;;;7.90;99.90;;;;;;5057006;28;19920;-66
2022/01/03 05:37:38;;;;;;;;;;;7.90;99.90;;;;;;5074346;28;19920;-67
2022/01/03 05:40:07;;;;;;;;;;;8.00;99.90;;;;;;5056290;28;19920;-66
2022/01/03 05:42:35;;;;;;;;;;;8.00;99.90;;;;;;5090083;28;19928;-65
2022/01/03 05:45:04;;;;;;;;;;;8.00;99.90;;;;;;5073300;28;19974;-62
2022/01/03 05:47:31;;;;;;;;;;;8.00;99.90;;;;;;5083179;28;19925;-65
2022/01/03 05:50:00;;;;;;;;;;;8.00;99.90;;;;;;5050997;28;19920;-65
2022/01/03 05:52:33;;;;;;;;;;;8.00;99.90;;;;;;5033170;28;19925;-64
2022/01/03 05:55:00;;;;;;;;;;;7.90;99.90;;;;;;5032972;28;19928;-63
2022/01/03 05:57:30;;;;;;;;;;;7.90;99.90;;;;;;5035704;28;20360;-64
2022/01/03 06:00:01;;;;;;;;;;;7.90;99.90;;;;;;5052883;28;20296;-64
2022/01/03 06:02:34;;;;;;;;;;;7.90;99.90;;;;;;5059882;28;19921;-65
2022/01/03 06:05:04;;;;;;;;;;;7.90;99.90;;;;;;5012796;28;20296;-61
2022/01/03 06:07:32;;;;;;;;;;;7.80;99.90;;;;;;5051315;28;19928;-64
2022/01/03 06:10:02;;;;;;;;;;;7.80;99.90;;;;;;5052650;28;20375;-65
2022/01/03 06:12:30;;;;;;;;;;;7.80;99.90;;;;;;5035668;28;19931;-65
2022/01/03 06:14:58;;;;;;;;;;;7.70;99.90;;;;;;5070374;28;19924;-64
2022/01/03 06:17:26;;;;;;;;;;;7.70;99.90;;;;;;5051928;28;19920;-65
2022/01/03 06:19:55;;;;;;;;;;;7.80;99.90;;;;;;5029765;28;20397;-60
2022/01/03 06:22:22;;;;;;;;;;;7.80;99.90;;;;;;5034045;28;19924;-60
2022/01/03 06:24:55;;;;;;;;;;;7.90;99.90;;;;;;5049275;28;19924;-60
2022/01/03 06:27:22;;;;;;;;;;;7.90;99.90;;;;;;5066661;28;19924;-60
2022/01/03 06:29:50;;;;;;;;;;;7.90;99.90;;;;;;5048738;28;19931;-60
2022/01/03 06:32:18;;;;;;;;;;;8.00;99.90;;;;;;5048904;28;19936;-60
2022/01/03 06:34:46;;;;;;;;;;;8.00;99.90;;;;;;5029445;28;20292;-63
2022/01/03 06:37:14;;;;;;;;;;;8.00;99.90;;;;;;5047235;28;19935;-60
2022/01/03 06:40:02;;;;;;;;;;;8.00;99.90;;;;;;5066073;28;19920;-61
2022/01/03 06:42:30;;;;;;;;;;;8.00;99.90;;;;;;5031441;28;19924;-61
2022/01/03 06:44:58;;;;;;;;;;;8.00;99.90;;;;;;5051075;28;19924;-60
2022/01/03 06:47:26;;;;;;;;;;;7.90;99.90;;;;;;5051772;28;19929;-61
2022/01/03 06:49:53;;;;;;;;;;;7.90;99.90;;;;;;5032579;28;19931;-61
2022/01/03 06:52:21;;;;;;;;;;;7.90;99.90;;;;;;5054255;28;20201;-61
2022/01/03 06:54:48;;;;;;;;;;;7.90;99.90;;;;;;5051632;28;20375;-61
2022/01/03 06:57:16;;;;;;;;;;;7.90;99.90;;;;;;5034787;28;20484;-61
2022/01/03 06:59:45;;;;;;;;;;;7.90;99.90;;;;;;5051922;28;19927;-61
2022/01/03 07:02:12;;;;;;;;;;;7.90;99.90;;;;;;5040311;28;20288;-61
2022/01/03 07:04:40;;;;;;;;;;;7.90;99.90;;;;;;5050110;28;20296;-60
2022/01/03 07:07:08;;;;;;;;;;;7.80;99.90;;;;;;5046200;28;19928;-61
2022/01/03 07:09:36;;;;;;;;;;;7.70;99.90;;;;;;5065774;28;19921;-60
2022/01/03 07:12:03;;;;;;;;;;;7.70;99.90;;;;;;5047643;28;19928;-62
2022/01/03 07:19:51;;;;;;;;;;;7.60;99.90;;;;;;5052699;28;19928;-61
2022/01/03 07:22:19;;;;;;;;;;;7.50;99.90;;;;;;5049896;28;20321;-62
2022/01/03 07:24:47;;;;;;;;;;;7.40;99.90;;;;;;5047679;28;19924;-61
2022/01/03 07:27:15;;;;;;;;;;;7.40;99.90;;;;;;5065439;28;19931;-61
2022/01/03 07:29:43;;;;;;;;;;;7.30;99.90;;;;;;5065528;28;19920;-61
2022/01/03 07:32:10;;;;;;;;;;;7.20;99.90;;;;;;5066544;28;19928;-61
2022/01/03 07:34:38;;;;;;;;;;;7.10;99.90;;;;;;5037441;28;19920;-62
2022/01/03 07:37:05;;;;;;;;;;;7.10;99.90;;;;;;5027819;28;19928;-61
2022/01/03 07:39:34;;;;;;;;;;;7.10;99.90;;;;;;5065125;28;19931;-61
2022/01/03 07:42:03;;;;;;;;;;;7.10;99.90;;;;;;5065331;28;20321;-62
2022/01/03 07:44:43;;;;;;;;;;;7.00;99.90;;;;;;5066035;28;19924;-61
2022/01/03 07:47:11;;;;;;;;;;;7.00;99.90;;;;;;5065018;28;19920;-61
2022/01/03 07:49:38;;;;;;;;;;;7.00;99.90;;;;;;5052749;28;19920;-62
2022/01/03 07:52:05;;;;;;;;;;;6.90;99.90;;;;;;5049610;28;19920;-60
2022/01/03 07:54:33;;;;;;;;;;;6.90;99.90;;;;;;5065334;28;20287;-60
2022/01/03 07:57:01;;;;;;;;;;;6.90;99.90;;;;;;5065369;28;19920;-63
2022/01/03 07:59:29;;;;;;;;;;;6.80;99.90;;;;;;5064032;28;20386;-67
2022/01/03 08:01:57;;;;;;;;;;;6.80;99.90;;;;;;5065164;28;20282;-63
2022/01/03 08:04:25;;;;;;;;;;;6.70;99.90;;;;;;5036703;28;19928;-61
2022/01/03 08:06:53;;;;;;;;;;;6.70;99.90;;;;;;5028315;28;19931;-68
2022/01/03 08:09:20;;;;;;;;;;;6.60;99.90;;;;;;5049032;28;19920;-61
2022/01/03 08:11:47;;;;;;;;;;;6.70;99.90;;;;;;5050547;28;20303;-66
2022/01/03 08:14:15;;;;;;;;;;;6.80;99.90;;;;;;5067858;28;19939;-63
2022/01/03 08:16:43;;;;;;;;;;;6.80;99.90;;;;;;5068146;28;20559;-67
2022/01/03 08:19:10;;;;;;;;;;;6.90;99.90;;;;;;5061085;28;19921;-60
2022/01/03 08:21:38;;;;;;;;;;;7.00;99.90;;;;;;5030665;28;19928;-68
2022/01/03 08:24:05;;;;;;;;;;;7.10;99.90;;;;;;5065241;28;19927;-64
2022/01/03 08:26:37;;;;;;;;;;;7.10;99.90;;;;;;5065891;28;19921;-61
2022/01/03 08:29:05;;;;;;;;;;;7.30;99.90;;;;;;5064598;28;19920;-62
2022/01/03 08:31:32;;;;;;;;;;;7.30;99.90;;;;;;5066481;28;20368;-60
2022/01/03 08:34:00;;;;;;;;;;;7.30;99.90;;;;;;5064597;28;19932;-60
2022/01/03 08:36:27;;;;;;;;;;;7.30;99.90;;;;;;5052175;28;19928;-66
2022/01/03 08:38:55;;;;;;;;;;;7.30;99.90;;;;;;5066998;28;19920;-67
2022/01/03 08:41:22;;;;;;;;;;;7.20;99.90;;;;;;5038173;28;19927;-65
2022/01/03 08:43:50;;;;;;;;;;;7.20;99.90;;;;;;5037766;28;20372;-66
2022/01/03 08:46:18;;;;;;;;;;;7.10;99.90;;;;;;5054743;28;20007;-64
2022/01/03 08:48:45;;;;;;;;;;;7.00;99.90;;;;;;5069790;28;20371;-67
2022/01/03 08:51:13;;;;;;;;;;;7.00;99.90;;;;;;5051931;28;19931;-66
2022/01/03 08:53:40;;;;;;;;;;;6.90;99.90;;;;;;5066765;28;19924;-61
2022/01/03 08:56:08;;;;;;;;;;;6.90;99.90;;;;;;5054375;28;19920;-60
2022/01/03 08:58:35;;;;;;;;;;;6.90;99.90;;;;;;5071812;28;20453;-61
2022/01/03 09:01:03;;;;;;;;;;;6.90;99.90;;;;;;5071884;28;20450;-61
2022/01/03 09:03:30;;;;;;;;;;;6.80;99.90;;;;;;5071158;28;19924;-61
2022/01/03 09:05:59;;;;;;;;;;;6.80;99.90;;;;;;5052411;28;19924;-60
2022/01/03 09:08:27;;;;;;;;;;;6.80;99.90;;;;;;5062212;28;19927;-60
2022/01/03 09:10:56;;;;;;;;;;;6.70;99.90;;;;;;5071650;28;19928;-62
2022/01/03 09:13:24;;;;;;;;;;;6.70;99.90;;;;;;5071069;28;19931;-61
2022/01/03 09:15:51;;;;;;;;;;;6.70;99.90;;;;;;5071405;28;19920;-61
2022/01/03 09:18:26;;;;;;;;;;;6.70;99.90;;;;;;5071297;28;19944;-60
2022/01/03 09:20:53;;;;;;;;;;;6.70;99.90;;;;;;5054208;28;19921;-62
2022/01/03 09:23:26;;;;;;;;;;;6.80;99.90;;;;;;5045482;28;19928;-61
2022/01/03 09:28:48;;;;;;;;;;;6.90;99.90;;;;;;5070841;28;19927;-63
2022/01/03 09:31:17;;;;;;;;;;;6.90;99.90;;;;;;5071183;28;19920;-62
2022/01/03 09:33:44;;;;;;;;;;;6.90;99.90;;;;;;5052918;28;20375;-60
2022/01/03 09:36:12;;;;;;;;;;;7.00;99.90;;;;;;5051725;28;20372;-61
2022/01/03 09:38:39;;;;;;;;;;;7.00;99.90;;;;;;5044201;28;19924;-61
2022/01/03 09:41:07;;;;;;;;;;;7.10;99.90;;;;;;5052156;28;19920;-62
2022/01/03 09:43:47;;;;;;;;;;;7.10;99.90;;;;;;5069685;28;19924;-62
2022/01/03 09:46:18;;;;;;;;;;;7.20;99.90;;;;;;5069011;28;20295;-61
2022/01/03 09:48:52;;;;;;;;;;;7.20;99.90;;;;;;5069390;28;19925;-62
2022/01/03 09:51:24;;;;;;;;;;;7.20;99.90;;;;;;5050681;28;20384;-60
2022/01/03 09:53:52;;;;;;;;;;;7.20;99.90;;;;;;5047659;28;19931;-61
2022/01/03 09:56:20;;;;;;;;;;;7.30;99.90;;;;;;5069946;28;20314;-62
2022/01/03 09:58:48;;;;;;;;;;;7.40;99.90;;;;;;5069391;28;19921;-61
2022/01/03 10:01:15;;;;;;;;;;;7.50;99.90;;;;;;5069613;28;19920;-61
2022/01/03 10:03:47;;;;;;;;;;;7.50;99.90;;;;;;5069495;28;19955;-64
2022/01/03 10:06:16;;;;;;;;;;;7.60;99.90;;;;;;5051981;28;19948;-60
2022/01/03 10:08:44;;;;;;;;;;;7.70;99.90;;;;;;5061778;28;19920;-62
2022/01/03 10:11:11;;;;;;;;;;;7.80;99.90;;;;;;5069389;28;19924;-60
2022/01/03 10:13:39;;;;;;;;;;;7.80;99.90;;;;;;5069785;28;19924;-61
2022/01/03 10:16:06;;;;;;;;;;;7.90;99.90;;;;;;5051193;28;19921;-65
2022/01/03 10:18:34;;;;;;;;;;;7.90;99.90;;;;;;5069124;28;19925;-61
2022/01/03 10:21:02;;;;;;;;;;;8.00;99.90;;;;;;5054701;28;20368;-62
2022/01/03 10:23:30;;;;;;;;;;;8.00;99.90;;;;;;5043904;28;20262;-63
2022/01/03 10:26:14;;;;;;;;;;;8.10;99.90;;;;;;5069153;28;19921;-66
2022/01/03 10:28:42;;;;;;;;;;;8.20;99.90;;;;;;5069192;28;19920;-62
2022/01/03 10:31:16;;;;;;;;;;;8.20;99.90;;;;;;5069329;28;20372;-63
2022/01/03 10:33:44;;;;;;;;;;;8.20;99.90;;;;;;5051133;28;19928;-61
2022/01/03 10:36:27;;;;;;;;;;;8.30;99.90;;;;;;4990382;28;1316613;-61
2022/01/03 10:38:55;;;;;;;;;;;8.40;99.90;;;;;;5064029;28;20423;-61
2022/01/03 10:41:23;;;;;;;;;;;8.40;99.90;;;;;;5069758;28;20386;-63
2022/01/03 10:43:50;;;;;;;;;;;8.40;99.90;;;;;;5069438;28;19920;-63
2022/01/03 10:46:19;;;;;;;;;;;8.50;99.90;;;;;;5069727;28;19927;-65
2022/01/03 10:48:47;;;;;;;;;;;8.50;99.90;;;;;;5069721;28;19921;-60
2022/01/03 10:51:22;;;;;;;;;;;8.60;99.90;;;;;;5055160;28;19927;-60
2022/01/03 10:53:51;;;;;;;;;;;8.70;99.90;;;;;;5064856;28;19920;-60
2022/01/03 10:56:38;;;;;;;;;;;8.90;99.90;;;;;;5068935;28;19921;-61
2022/01/03 10:59:11;;;;;;;;;;;9.00;99.90;;;;;;5069548;28;19987;-60
2022/01/03 11:01:40;;;;;;;;;;;9.10;99.90;;;;;;5052045;28;20392;-60
2022/01/03 11:04:08;;;;;;;;;;;9.30;99.90;;;;;;5051151;28;19927;-60
2022/01/03 11:07:01;;;;;;;;;;;9.40;99.90;;;;;;5053434;28;19943;-60
2022/01/03 11:12:17;;;;;;;;;;;9.50;99.90;;;;;;5069194;28;20289;-63
2022/01/03 11:14:45;;;;;;;;;;;9.50;99.90;;;;;;5051384;28;19930;-61
2022/01/03 11:17:26;;;;;;;;;;;9.60;99.90;;;;;;5068982;28;19924;-60
2022/01/03 11:19:57;;;;;;;;;;;9.70;99.90;;;;;;5068111;28;19924;-64
2022/01/03 11:22:38;;;;;;;;;;;9.90;99.90;;;;;;5052682;28;20383;-62
2022/01/03 11:25:06;;;;;;;;;;;10.00;99.90;;;;;;5068910;28;20314;-67
2022/01/03 11:27:38;;;;;;;;;;;10.10;99.90;;;;;;5068772;28;19929;-63
2022/01/03 11:30:10;;;;;;;;;;;10.10;99.90;;;;;;5051953;28;21211;-66
2022/01/03 11:32:39;;;;;;;;;;;10.00;99.90;;;;;;5069034;28;20414;-67
2022/01/03 11:35:06;;;;;;;;;;;10.00;99.90;;;;;;5066915;28;19924;-61
2022/01/03 11:37:36;;;;;;;;;;;10.00;99.90;;;;;;5051530;28;19928;-59
2022/01/03 11:40:04;;;;;;;;;;;10.00;99.90;;;;;;5069050;28;19927;-61
2022/01/03 11:42:32;;;;;;;;;;;9.90;99.90;;;;;;5068792;28;19932;-60
2022/01/03 11:45:00;;;;;;;;;;;9.80;99.90;;;;;;5069059;28;20181;-60
2022/01/03 11:47:28;;;;;;;;;;;9.70;99.90;;;;;;5068780;28;19920;-60
2022/01/03 11:49:56;;;;;;;;;;;9.70;99.90;;;;;;5050852;28;19920;-62
2022/01/03 11:52:24;;;;;;;;;;;9.80;99.90;;;;;;5068304;28;19925;-61
2022/01/03 11:54:52;;;;;;;;;;;9.90;99.90;;;;;;5069028;28;20293;-60
2022/01/03 11:57:46;;;;;;;;;;;10.10;99.90;;;;;;5068538;28;20179;-60
2022/01/03 12:05:52;;;;;;;;;;;11.10;99.90;;;;;;5062384;28;20387;-60
2022/01/03 12:08:24;;;;;;;;;;;11.40;99.90;;;;;;5057124;28;19927;-60
2022/01/03 12:10:52;;;;;;;;;;;11.60;99.90;;;;;;5050953;28;20289;-60
2022/01/03 12:13:21;;;;;;;;;;;11.80;99.90;;;;;;5068177;28;20435;-60
2022/01/03 12:16:02;;;;;;;;;;;11.90;99.90;;;;;;5068610;28;20367;-62
2022/01/03 12:18:30;;;;;;;;;;;12.00;99.90;;;;;;5050541;28;20300;-60
2022/01/03 12:20:58;;;;;;;;;;;12.10;99.90;;;;;;5061840;28;19920;-60
2022/01/03 12:23:42;;;;;;;;;;;12.20;99.90;;;;;;5059642;28;20335;-61
2022/01/03 12:26:11;;;;;;;;;;;12.40;99.90;;;;;;5050824;28;19920;-60
2022/01/03 12:28:57;;;;;;;;;;;12.60;99.70;;;;;;5068245;28;19920;-61
2022/01/03 12:31:24;;;;;;;;;;;12.50;99.60;;;;;;5050879;28;19920;-60
2022/01/03 12:34:21;;;;;;;;;;;12.80;99.20;;;;;;5068081;28;20199;-60
2022/01/03 12:37:21;;;;;;;;;;;12.90;99.70;;;;;;5035232;28;19921;-61
2022/01/03 12:40:03;;;;;;;;;;;13.10;98.70;;;;;;5015083;28;19920;-61
2022/01/03 12:42:53;;;;;;;;;;;13.30;98.40;;;;;;5034364;28;20312;-61
2022/01/03 12:45:29;;;;;;;;;;;13.50;97.00;;;;;;5068576;28;20297;-61
2022/01/03 12:48:11;;;;;;;;;;;13.60;96.50;;;;;;5068627;28;20096;-62
2022/01/03 12:50:51;;;;;;;;;;;13.50;96.40;;;;;;5032413;28;19920;-61
2022/01/03 12:53:27;;;;;;;;;;;13.50;96.90;;;;;;5058047;28;19928;-66
2022/01/03 12:56:05;;;;;;;;;;;13.60;96.30;;;;;;5050338;28;19920;-61
2022/01/03 12:58:32;;;;;;;;;;;13.70;95.60;;;;;;5067694;28;19921;-65
2022/01/03 13:01:05;;;;;;;;;;;13.70;97.30;;;;;;5068232;28;19944;-61
2022/01/03 13:03:39;;;;;;;;;;;13.80;95.90;;;;;;5067677;28;19931;-61
2022/01/03 13:06:18;;;;;;;;;;;13.80;94.40;;;;;;5045678;28;19920;-61
2022/01/03 13:08:46;;;;;;;;;;;13.80;95.00;;;;;;5060178;28;19927;-61
2022/01/03 13:11:15;;;;;;;;;;;13.80;95.90;;;;;;5068497;28;20312;-62
2022/01/03 13:13:43;;;;;;;;;;;14.00;95.50;;;;;;5049749;28;19927;-62
2022/01/03 13:16:17;;;;;;;;;;;14.10;95.30;;;;;;5050319;28;19921;-62
2022/01/03 13:18:49;;;;;;;;;;;14.20;95.40;;;;;;5067800;28;19924;-62
2022/01/03 13:21:16;;;;;;;;;;;14.30;95.00;;;;;;5067093;28;20638;-66
2022/01/03 13:23:51;;;;;;;;;;;14.40;95.50;;;;;;5065210;28;19924;-63
2022/01/03 13:26:20;;;;;;;;;;;14.50;94.30;;;;;;5071749;28;19943;-63
2022/01/03 13:28:48;;;;;;;;;;;14.40;94.00;;;;;;5053421;28;19920;-62
2022/01/03 13:31:15;;;;;;;;;;;14.40;95.00;;;;;;5069571;28;19928;-62
2022/01/03 13:33:43;;;;;;;;;;;14.40;93.20;;;;;;5067573;28;19931;-62
2022/01/03 13:36:18;;;;;;;;;;;14.00;92.80;;;;;;5047690;28;20458;-62
2022/01/03 13:38:45;;;;;;;;;;;13.40;94.00;;;;;;5060177;28;19925;-61
2022/01/03 13:41:15;;;;;;;;;;;12.90;94.90;;;;;;5052920;28;19920;-62
2022/01/03 13:43:52;;;;;;;;;;;12.50;96.10;;;;;;5070994;28;19920;-66
2022/01/03 13:49:21;;;;;;;;;;;12.10;99.80;;;;;;5070842;28;19921;-65
2022/01/03 13:51:52;;;;;;;;;;;12.30;99.90;;;;;;5063320;28;19927;-66
2022/01/03 13:54:25;;;;;;;;;;;12.50;99.10;;;;;;5069336;28;19932;-66
2022/01/03 13:56:53;;;;;;;;;;;12.40;98.20;;;;;;5050941;28;19924;-65
2022/01/03 13:59:21;;;;;;;;;;;12.10;98.40;;;;;;5067291;28;19927;-66
2022/01/03 14:01:50;;;;;;;;;;;11.90;99.10;;;;;;5068846;28;19920;-64
2022/01/03 14:04:18;;;;;;;;;;;11.70;99.70;;;;;;5070184;28;19920;-65
2022/01/03 14:06:46;;;;;;;;;;;11.50;99.90;;;;;;5065383;28;19940;-64
2022/01/03 14:09:14;;;;;;;;;;;11.30;99.90;;;;;;5066467;28;19943;-66
2022/01/03 14:12:11;;;;;;;;;;;11.20;99.90;;;;;;5070715;28;19944;-64
2022/01/03 14:14:39;;;;;;;;;;;11.10;99.90;;;;;;5069795;28;20419;-62
2022/01/03 14:17:07;;;;;;;;;;;11.00;99.90;;;;;;5070523;28;20447;-61
2022/01/03 14:19:35;;;;;;;;;;;10.90;99.90;;;;;;5070860;28;19924;-61
2022/01/03 14:22:09;;;;;;;;;;;10.80;99.90;;;;;;5063203;28;19928;-61
2022/01/03 14:24:37;;;;;;;;;;;10.80;99.90;;;;;;5070501;28;19928;-64
2022/01/03 14:27:04;;;;;;;;;;;10.80;99.90;;;;;;5070321;28;19920;-63
2022/01/03 14:29:33;;;;;;;;;;;10.90;99.90;;;;;;5070077;28;19921;-65
2022/01/03 14:32:10;;;;;;;;;;;11.00;99.90;;;;;;5069198;28;19921;-61
2022/01/03 14:34:38;;;;;;;;;;;11.00;99.90;;;;;;5070395;28;19921;-61
2022/01/03 14:37:07;;;;;;;;;;;11.00;99.90;;;;;;5063931;28;19931;-61
2022/01/03 14:39:51;;;;;;;;;;;11.00;99.90;;;;;;5068606;28;19927;-61
2022/01/03 14:42:35;;;;;;;;;;;10.90;99.90;;;;;;5070214;28;19920;-60
2022/01/03 14:45:09;;;;;;;;;;;10.80;99.90;;;;;;5070011;28;19921;-60
2022/01/03 14:47:37;;;;;;;;;;;10.80;99.90;;;;;;5069852;28;19927;-60
2022/01/03 14:50:06;;;;;;;;;;;10.70;99.90;;;;;;5051909;28;19920;-59
2022/01/03 14:52:35;;;;;;;;;;;10.70;99.90;;;;;;5064362;28;19920;-59
2022/01/03 14:55:03;;;;;;;;;;;10.60;99.90;;;;;;5069829;28;19928;-60
2022/01/03 14:57:31;;;;;;;;;;;10.60;99.90;;;;;;5066731;28;19924;-59
2022/01/03 14:59:59;;;;;;;;;;;10.60;99.90;;;;;;5069127;28;20499;-60
2022/01/03 15:02:27;;;;;;;;;;;10.40;99.90;;;;;;5068557;28;20497;-59
2022/01/03 15:04:57;;;;;;;;;;;10.40;99.90;;;;;;5069713;28;20411;-59